Naikai2 — JD2433 — position and weather

sailwx.info

Track history (hours):
 
Tides and Currents Weather Stations Pressure Air Temp Water Temp Dewpoint Dewpoint Depression Visibility Wind Speed Wind Dir Waves Ship Positions

Naikai2

Last reported at 2018-Jun-23 13:32 UTC. Time now 2018-Jun-25 05:38 UTC.
Position N 34°38' E 135°10'.

Length 28 m; draft 2.2 m.

Type: Other ship. MMSI: 431000283.

Date/timePositionNaut miles runAvg speedWind from/ knotsBaromVisibWave heightAir tempDewpointWater temp
2018-Jun-23 13:32N 34°38' E 135°10'011.0
2018-Jun-23 13:30N 34°38' E 135°10'613.1
2018-Jun-23 13:00N 34°32' E 135°07'714.5
2018-Jun-23 12:31N 34°26' E 135°03'714.6
2018-Jun-23 12:00N 34°19' E 134°58'3 5.2
2018-Jun-23 11:30N 34°17' E 134°58'612.3
2018-Jun-23 11:00N 34°23' E 135°00'713.6
2018-Jun-23 10:30N 34°29' E 135°03'510.2
2018-Jun-23 10:00N 34°34' E 135°06'5 9.4
2018-Jun-23 09:28N 34°37' E 135°01'613.4
2018-Jun-23 08:59N 34°35' E 134°54'714.0
2018-Jun-23 08:30N 34°33' E 134°46'8 2.5
2018-Jun-23 05:12N 34°37' E 134°54'212.0
2018-Jun-23 05:00N 34°38' E 134°57'510.4
2018-Jun-23 04:29N 34°37' E 135°03'510.4
2018-Jun-23 04:00N 34°38' E 135°09'2 4.6
2018-Jun-23 03:30N 34°40' E 135°11'1 2.5
2018-Jun-23 03:00N 34°39' E 135°10'0 0.0
2018-Jun-22 11:27N 34°39' E 135°10'612.2
2018-Jun-22 10:59N 34°35' E 135°05'711.2
2018-Jun-22 10:22N 34°36' E 134°57'1 1.7
2018-Jun-22 09:55N 34°37' E 134°57'3 0.6
2018-Jun-22 05:52N 34°38' E 134°59'512.7
2018-Jun-22 05:29N 34°37' E 134°54'713.7
2018-Jun-22 05:00N 34°41' E 134°47'5 4.1
2018-Jun-22 03:44N 34°42' E 134°41'313.1
2018-Jun-22 03:30N 34°39' E 134°42'613.0
2018-Jun-22 03:00N 34°33' E 134°45'1013.8
2018-Jun-22 02:19N 34°36' E 134°56'412.4
2018-Jun-22 01:58N 34°37' E 135°01'510.5
2018-Jun-22 01:30N 34°35' E 135°06'2 4.5
2018-Jun-22 01:00N 34°34' E 135°09'4 8.6
2018-Jun-22 00:30N 34°30' E 135°08'510.6
2018-Jun-22 00:00N 34°25' E 135°05'713.2
2018-Jun-21 23:30N 34°20' E 135°01'611.7
2018-Jun-21 23:00N 34°14' E 134°60'3 6.5
2018-Jun-21 22:30N 34°11' E 135°01'611.1
2018-Jun-21 22:00N 34°13' E 135°08'1 2.2
2018-Jun-21 21:30N 34°13' E 135°09'0 0.0
2018-Jun-21 05:30N 34°13' E 135°09'3 6.7
2018-Jun-21 05:01N 34°14' E 135°05'510.8
2018-Jun-21 04:30N 34°15' E 134°59'713.4
2018-Jun-21 04:01N 34°22' E 135°00'815.5
2018-Jun-21 03:31N 34°27' E 135°08'815.4
2018-Jun-21 03:00N 34°31' E 135°15'611.8
2018-Jun-21 02:29N 34°33' E 135°22'2 3.2
2018-Jun-21 01:59N 34°34' E 135°24'0 0.4
2018-Jun-21 01:29N 34°34' E 135°24'510.9
2018-Jun-21 01:00N 34°37' E 135°19'611.7
2018-Jun-21 00:30N 34°39' E 135°12'1 2.4
2018-Jun-21 00:01N 34°40' E 135°11'2 0.4
2018-Jun-20 19:29N 34°39' E 135°10'612.7
2018-Jun-20 19:00N 34°37' E 135°03'911.5
2018-Jun-20 18:12N 34°35' E 134°52'312.7
2018-Jun-20 18:00N 34°33' E 134°49'613.0
2018-Jun-20 17:30N 34°32' E 134°42'713.9
2018-Jun-20 16:58N 34°34' E 134°50'815.0
2018-Jun-20 16:26N 34°38' E 134°59'512.8
2018-Jun-20 16:00N 34°35' E 135°05'3 5.4
2018-Jun-20 15:30N 34°34' E 135°08'510.3
2018-Jun-20 15:00N 34°30' E 135°05'611.3
2018-Jun-20 14:30N 34°24' E 135°03'611.4
2018-Jun-20 14:00N 34°19' E 135°00'510.1
2018-Jun-20 13:30N 34°14' E 134°59'2 4.6
2018-Jun-20 13:00N 34°12' E 135°00'713.3
2018-Jun-20 12:31N 34°18' E 134°58'4 7.5
2018-Jun-20 12:00N 34°21' E 134°54'0 0.0
2018-Jun-20 05:17N 34°21' E 134°54'2 8.0
2018-Jun-20 05:00N 34°23' E 134°56'714.6
2018-Jun-20 04:30N 34°29' E 135°01'713.9
2018-Jun-20 04:00N 34°34' E 135°06'713.8
2018-Jun-20 03:30N 34°39' E 135°11'0 1.0
2018-Jun-20 03:00N 34°40' E 135°12'713.7
2018-Jun-20 02:30N 34°36' E 135°19'5 9.1
2018-Jun-20 01:58N 34°34' E 135°24'3 4.8
2018-Jun-20 01:23N 34°33' E 135°21'3 7.3
2018-Jun-20 00:56N 34°33' E 135°17'4 8.8
2018-Jun-20 00:29N 34°30' E 135°13'714.8
2018-Jun-20 00:00N 34°25' E 135°07'714.7
2018-Jun-19 23:30N 34°20' E 135°01'510.5
2018-Jun-19 23:00N 34°15' E 134°60'3 6.3
2018-Jun-19 22:30N 34°11' E 134°60'3 6.6
2018-Jun-19 22:00N 34°14' E 135°01'611.4
2018-Jun-19 21:30N 34°19' E 134°57'5 9.1
2018-Jun-19 21:00N 34°24' E 134°58'5 9.8
2018-Jun-19 20:30N 34°28' E 134°60'510.3
2018-Jun-19 20:00N 34°33' E 135°02'4 8.9
2018-Jun-19 19:30N 34°36' E 134°58'2 4.0
2018-Jun-19 18:56N 34°38' E 135°00'511.5
2018-Jun-19 18:30N 34°35' E 135°06'4 8.4
2018-Jun-19 18:00N 34°38' E 135°10'2 3.1
2018-Jun-19 17:30N 34°39' E 135°10'0 0.0
2018-Jun-19 17:00N 34°39' E 135°10'1 0.0
2018-Jun-18 20:10N 34°38' E 135°10'213.7
2018-Jun-18 20:00N 34°37' E 135°08'714.8
2018-Jun-18 19:30N 34°38' E 134°59'1 2.6
2018-Jun-18 19:00N 34°38' E 135°00'612.3
2018-Jun-18 18:31N 34°35' E 135°07'2 4.8
2018-Jun-18 18:00N 34°35' E 135°10'2 3.4
2018-Jun-18 17:30N 34°36' E 135°10'3 5.7
2018-Jun-18 17:00N 34°39' E 135°10'0 0.0
2018-Jun-18 16:30N 34°39' E 135°10'2 0.2
2018-Jun-18 06:55N 34°38' E 135°11'614.9
2018-Jun-18 06:30N 34°36' E 135°18'712.6
2018-Jun-18 05:59N 34°33' E 135°26'0 0.4
2018-Jun-18 05:30N 34°33' E 135°26'4 7.2
2018-Jun-18 05:00N 34°33' E 135°21'2 4.3
2018-Jun-18 04:30N 34°34' E 135°19'3 6.5
2018-Jun-18 04:00N 34°36' E 135°15'611.1
2018-Jun-18 03:30N 34°39' E 135°10'0 0.0
2018-Jun-18 00:43N 34°39' E 135°10'1 4.9
2018-Jun-18 00:30N 34°39' E 135°11'1 2.5
2018-Jun-18 00:00N 34°40' E 135°11'1 2.5
2018-Jun-17 23:30N 34°39' E 135°10'0 0.0
2018-Jun-17 22:59N 34°39' E 135°10'0 0.0
2018-Jun-17 19:34N 34°39' E 135°10'0 0.5
2018-Jun-17 19:31N 34°39' E 135°10'611.9
2018-Jun-17 19:00N 34°37' E 135°03'2 2.8
2018-Jun-17 18:25N 34°37' E 135°01'410.3
2018-Jun-17 17:59N 34°35' E 135°06'3 5.8
2018-Jun-17 17:30N 34°36' E 135°09'3 6.0
2018-Jun-17 16:59N 34°39' E 135°10'0 0.0
2018-Jun-17 16:30N 34°39' E 135°10'1 0.1
2018-Jun-17 05:11N 34°38' E 135°11'214.5
2018-Jun-17 05:00N 34°37' E 135°13'714.3
2018-Jun-17 04:30N 34°35' E 135°22'3 5.5
2018-Jun-17 04:00N 34°33' E 135°24'3 5.7
2018-Jun-17 03:30N 34°33' E 135°21'2 2.9
2018-Jun-17 02:57N 34°33' E 135°19'2 5.3
2018-Jun-17 02:30N 34°35' E 135°17'4 7.4
2018-Jun-17 02:00N 34°37' E 135°13'4 7.5
2018-Jun-17 01:29N 34°37' E 135°08'3 6.9
2018-Jun-17 01:00N 34°37' E 135°04'4 7.5
2018-Jun-17 00:29N 34°38' E 134°59'1 1.9
2018-Jun-17 00:00N 34°38' E 135°00'510.0
2018-Jun-16 23:30N 34°35' E 135°05'3 6.0
2018-Jun-16 23:00N 34°37' E 135°08'3 4.8
2018-Jun-16 22:29N 34°39' E 135°10'0 0.0
2018-Jun-16 22:00N 34°39' E 135°10'2 0.1
2018-Jun-16 04:04N 34°37' E 135°08'114.5
2018-Jun-16 04:00N 34°37' E 135°08'510.8
2018-Jun-16 03:30N 34°37' E 135°01'4 7.3
2018-Jun-16 02:58N 34°36' E 134°56'3 6.4
2018-Jun-16 02:30N 34°38' E 134°59'714.8
2018-Jun-16 02:01N 34°38' E 135°08'2 4.6
2018-Jun-16 01:30N 34°39' E 135°10'0 0.0
2018-Jun-16 01:00N 34°39' E 135°10'0 0.0
2018-Jun-16 00:30N 34°39' E 135°10'1 0.0
2018-Jun-14 06:26N 34°39' E 135°11'1 3.0
2018-Jun-14 06:00N 34°38' E 135°09'711.9
2018-Jun-14 05:26N 34°37' E 135°01'2 3.6
2018-Jun-14 04:48N 34°36' E 134°58'2 5.2
2018-Jun-14 04:29N 34°38' E 134°59'3 5.3
2018-Jun-14 04:00N 34°37' E 135°02'4 7.1
2018-Jun-14 03:30N 34°37' E 135°06'5 9.4
2018-Jun-14 02:59N 34°40' E 135°11'1 2.0
2018-Jun-14 02:30N 34°39' E 135°11'  
Track history (hours):
 
Tides and Currents Weather Stations Pressure Air Temp Water Temp Dewpoint Dewpoint Depression Visibility Wind Speed Wind Dir Waves Ship Positions

Naikai2

Last reported at 2018-Jun-23 13:32 UTC. Time now 2018-Jun-25 05:38 UTC.
Position N 34°38' E 135°10'.

Length 28 m; draft 2.2 m.

Type: Other ship. MMSI: 431000283.

Date/timePositionNaut miles runAvg speedWind from/ knotsBaromVisibWave heightAir tempDewpointWater temp
2018-Jun-23 13:32N 34°38' E 135°10'011.0
2018-Jun-23 13:30N 34°38' E 135°10'613.1
2018-Jun-23 13:00N 34°32' E 135°07'714.5
2018-Jun-23 12:31N 34°26' E 135°03'714.6
2018-Jun-23 12:00N 34°19' E 134°58'3 5.2
2018-Jun-23 11:30N 34°17' E 134°58'612.3
2018-Jun-23 11:00N 34°23' E 135°00'713.6
2018-Jun-23 10:30N 34°29' E 135°03'510.2
2018-Jun-23 10:00N 34°34' E 135°06'5 9.4
2018-Jun-23 09:28N 34°37' E 135°01'613.4
2018-Jun-23 08:59N 34°35' E 134°54'714.0
2018-Jun-23 08:30N 34°33' E 134°46'8 2.5
2018-Jun-23 05:12N 34°37' E 134°54'212.0
2018-Jun-23 05:00N 34°38' E 134°57'510.4
2018-Jun-23 04:29N 34°37' E 135°03'510.4
2018-Jun-23 04:00N 34°38' E 135°09'2 4.6
2018-Jun-23 03:30N 34°40' E 135°11'1 2.5
2018-Jun-23 03:00N 34°39' E 135°10'0 0.0
2018-Jun-22 11:27N 34°39' E 135°10'612.2
2018-Jun-22 10:59N 34°35' E 135°05'711.2
2018-Jun-22 10:22N 34°36' E 134°57'1 1.7
2018-Jun-22 09:55N 34°37' E 134°57'3 0.6
2018-Jun-22 05:52N 34°38' E 134°59'512.7
2018-Jun-22 05:29N 34°37' E 134°54'713.7
2018-Jun-22 05:00N 34°41' E 134°47'5 4.1
2018-Jun-22 03:44N 34°42' E 134°41'313.1
2018-Jun-22 03:30N 34°39' E 134°42'613.0
2018-Jun-22 03:00N 34°33' E 134°45'1013.8
2018-Jun-22 02:19N 34°36' E 134°56'412.4
2018-Jun-22 01:58N 34°37' E 135°01'510.5
2018-Jun-22 01:30N 34°35' E 135°06'2 4.5
2018-Jun-22 01:00N 34°34' E 135°09'4 8.6
2018-Jun-22 00:30N 34°30' E 135°08'510.6
2018-Jun-22 00:00N 34°25' E 135°05'713.2
2018-Jun-21 23:30N 34°20' E 135°01'611.7
2018-Jun-21 23:00N 34°14' E 134°60'3 6.5
2018-Jun-21 22:30N 34°11' E 135°01'611.1
2018-Jun-21 22:00N 34°13' E 135°08'1 2.2
2018-Jun-21 21:30N 34°13' E 135°09'0 0.0
2018-Jun-21 05:30N 34°13' E 135°09'3 6.7
2018-Jun-21 05:01N 34°14' E 135°05'510.8
2018-Jun-21 04:30N 34°15' E 134°59'713.4
2018-Jun-21 04:01N 34°22' E 135°00'815.5
2018-Jun-21 03:31N 34°27' E 135°08'815.4
2018-Jun-21 03:00N 34°31' E 135°15'611.8
2018-Jun-21 02:29N 34°33' E 135°22'2 3.2
2018-Jun-21 01:59N 34°34' E 135°24'0 0.4
2018-Jun-21 01:29N 34°34' E 135°24'510.9
2018-Jun-21 01:00N 34°37' E 135°19'611.7
2018-Jun-21 00:30N 34°39' E 135°12'1 2.4
2018-Jun-21 00:01N 34°40' E 135°11'2 0.4
2018-Jun-20 19:29N 34°39' E 135°10'612.7
2018-Jun-20 19:00N 34°37' E 135°03'911.5
2018-Jun-20 18:12N 34°35' E 134°52'312.7
2018-Jun-20 18:00N 34°33' E 134°49'613.0
2018-Jun-20 17:30N 34°32' E 134°42'713.9
2018-Jun-20 16:58N 34°34' E 134°50'815.0
2018-Jun-20 16:26N 34°38' E 134°59'512.8
2018-Jun-20 16:00N 34°35' E 135°05'3 5.4
2018-Jun-20 15:30N 34°34' E 135°08'510.3
2018-Jun-20 15:00N 34°30' E 135°05'611.3
2018-Jun-20 14:30N 34°24' E 135°03'611.4
2018-Jun-20 14:00N 34°19' E 135°00'510.1
2018-Jun-20 13:30N 34°14' E 134°59'2 4.6
2018-Jun-20 13:00N 34°12' E 135°00'713.3
2018-Jun-20 12:31N 34°18' E 134°58'4 7.5
2018-Jun-20 12:00N 34°21' E 134°54'0 0.0
2018-Jun-20 05:17N 34°21' E 134°54'2 8.0
2018-Jun-20 05:00N 34°23' E 134°56'714.6
2018-Jun-20 04:30N 34°29' E 135°01'713.9
2018-Jun-20 04:00N 34°34' E 135°06'713.8
2018-Jun-20 03:30N 34°39' E 135°11'0 1.0
2018-Jun-20 03:00N 34°40' E 135°12'713.7
2018-Jun-20 02:30N 34°36' E 135°19'5 9.1
2018-Jun-20 01:58N 34°34' E 135°24'3 4.8
2018-Jun-20 01:23N 34°33' E 135°21'3 7.3
2018-Jun-20 00:56N 34°33' E 135°17'4 8.8
2018-Jun-20 00:29N 34°30' E 135°13'714.8
2018-Jun-20 00:00N 34°25' E 135°07'714.7
2018-Jun-19 23:30N 34°20' E 135°01'510.5
2018-Jun-19 23:00N 34°15' E 134°60'3 6.3
2018-Jun-19 22:30N 34°11' E 134°60'3 6.6
2018-Jun-19 22:00N 34°14' E 135°01'611.4
2018-Jun-19 21:30N 34°19' E 134°57'5 9.1
2018-Jun-19 21:00N 34°24' E 134°58'5 9.8
2018-Jun-19 20:30N 34°28' E 134°60'510.3
2018-Jun-19 20:00N 34°33' E 135°02'4 8.9
2018-Jun-19 19:30N 34°36' E 134°58'2 4.0
2018-Jun-19 18:56N 34°38' E 135°00'511.5
2018-Jun-19 18:30N 34°35' E 135°06'4 8.4
2018-Jun-19 18:00N 34°38' E 135°10'2 3.1
2018-Jun-19 17:30N 34°39' E 135°10'0 0.0
2018-Jun-19 17:00N 34°39' E 135°10'1 0.0
2018-Jun-18 20:10N 34°38' E 135°10'213.7
2018-Jun-18 20:00N 34°37' E 135°08'714.8
2018-Jun-18 19:30N 34°38' E 134°59'1 2.6
2018-Jun-18 19:00N 34°38' E 135°00'612.3
2018-Jun-18 18:31N 34°35' E 135°07'2 4.8
2018-Jun-18 18:00N 34°35' E 135°10'2 3.4
2018-Jun-18 17:30N 34°36' E 135°10'3 5.7
2018-Jun-18 17:00N 34°39' E 135°10'0 0.0
2018-Jun-18 16:30N 34°39' E 135°10'2 0.2
2018-Jun-18 06:55N 34°38' E 135°11'614.9
2018-Jun-18 06:30N 34°36' E 135°18'712.6
2018-Jun-18 05:59N 34°33' E 135°26'0 0.4
2018-Jun-18 05:30N 34°33' E 135°26'4 7.2
2018-Jun-18 05:00N 34°33' E 135°21'2 4.3
2018-Jun-18 04:30N 34°34' E 135°19'3 6.5
2018-Jun-18 04:00N 34°36' E 135°15'611.1
2018-Jun-18 03:30N 34°39' E 135°10'0 0.0
2018-Jun-18 00:43N 34°39' E 135°10'1 4.9
2018-Jun-18 00:30N 34°39' E 135°11'1 2.5
2018-Jun-18 00:00N 34°40' E 135°11'1 2.5
2018-Jun-17 23:30N 34°39' E 135°10'0 0.0
2018-Jun-17 22:59N 34°39' E 135°10'0 0.0
2018-Jun-17 19:34N 34°39' E 135°10'0 0.5
2018-Jun-17 19:31N 34°39' E 135°10'611.9
2018-Jun-17 19:00N 34°37' E 135°03'2 2.8
2018-Jun-17 18:25N 34°37' E 135°01'410.3
2018-Jun-17 17:59N 34°35' E 135°06'3 5.8
2018-Jun-17 17:30N 34°36' E 135°09'3 6.0
2018-Jun-17 16:59N 34°39' E 135°10'0 0.0
2018-Jun-17 16:30N 34°39' E 135°10'1 0.1
2018-Jun-17 05:11N 34°38' E 135°11'214.5
2018-Jun-17 05:00N 34°37' E 135°13'714.3
2018-Jun-17 04:30N 34°35' E 135°22'3 5.5
2018-Jun-17 04:00N 34°33' E 135°24'3 5.7
2018-Jun-17 03:30N 34°33' E 135°21'2 2.9
2018-Jun-17 02:57N 34°33' E 135°19'2 5.3
2018-Jun-17 02:30N 34°35' E 135°17'4 7.4
2018-Jun-17 02:00N 34°37' E 135°13'4 7.5
2018-Jun-17 01:29N 34°37' E 135°08'3 6.9
2018-Jun-17 01:00N 34°37' E 135°04'4 7.5
2018-Jun-17 00:29N 34°38' E 134°59'1 1.9
2018-Jun-17 00:00N 34°38' E 135°00'510.0
2018-Jun-16 23:30N 34°35' E 135°05'3 6.0
2018-Jun-16 23:00N 34°37' E 135°08'3 4.8
2018-Jun-16 22:29N 34°39' E 135°10'0 0.0
2018-Jun-16 22:00N 34°39' E 135°10'2 0.1
2018-Jun-16 04:04N 34°37' E 135°08'114.5
2018-Jun-16 04:00N 34°37' E 135°08'510.8
2018-Jun-16 03:30N 34°37' E 135°01'4 7.3
2018-Jun-16 02:58N 34°36' E 134°56'3 6.4
2018-Jun-16 02:30N 34°38' E 134°59'714.8
2018-Jun-16 02:01N 34°38' E 135°08'2 4.6
2018-Jun-16 01:30N 34°39' E 135°10'0 0.0
2018-Jun-16 01:00N 34°39' E 135°10'0 0.0
2018-Jun-16 00:30N 34°39' E 135°10'1 0.0
2018-Jun-14 06:26N 34°39' E 135°11'1 3.0
2018-Jun-14 06:00N 34°38' E 135°09'711.9
2018-Jun-14 05:26N 34°37' E 135°01'2 3.6
2018-Jun-14 04:48N 34°36' E 134°58'2 5.2
2018-Jun-14 04:29N 34°38' E 134°59'3 5.3
2018-Jun-14 04:00N 34°37' E 135°02'4 7.1
2018-Jun-14 03:30N 34°37' E 135°06'5 9.4
2018-Jun-14 02:59N 34°40' E 135°11'1 2.0
2018-Jun-14 02:30N 34°39' E 135°11'  

Dump ship's entire track history